Time;durP1;ratioP1;P1;durP2;ratioP2;P2;SDS_P1;SDS_P2;PMS_P1;PMS_P2;Temp;Humidity;BMP_temperature;BMP_pressure;BME280_temperature;BME280_humidity;BME280_pressure;Samples;Min_cycle;Max_cycle;Signal;HPM_P1;HPM_P2
2023/06/21 00:00:42;;;;;;;8.67;7.77;;;;;;;18.51;90.58;94886.16;5089437;28;20189;-44
2023/06/21 00:03:09;;;;;;;10.23;7.80;;;;;;;18.50;90.75;94889.72;5089939;28;20257;-44
2023/06/21 00:05:38;;;;;;;8.80;7.70;;;;;;;18.47;91.11;94891.88;5089858;28;20216;-44
2023/06/21 00:08:05;;;;;;;9.17;7.77;;;;;;;18.46;90.82;94890.28;5089532;28;20870;-44
2023/06/21 00:10:33;;;;;;;8.87;7.23;;;;;;;18.43;90.89;94891.44;5089358;28;20220;-44
2023/06/21 00:13:00;;;;;;;10.20;7.50;;;;;;;18.40;90.82;94886.63;5090614;28;20319;-46
2023/06/21 00:15:28;;;;;;;10.13;7.37;;;;;;;18.25;90.96;94868.50;5089518;28;20270;-45
2023/06/21 00:17:55;;;;;;;7.73;7.03;;;;;;;18.35;90.80;94888.13;5089543;28;20197;-45
2023/06/21 00:20:22;;;;;;;11.63;8.70;;;;;;;17.89;90.94;94821.06;5089672;28;20185;-46
2023/06/21 00:22:55;;;;;;;9.10;8.20;;;;;;;18.30;91.03;94901.63;5093771;28;20566;-46
2023/06/21 00:25:22;;;;;;;10.17;7.77;;;;;;;18.25;91.20;94886.63;5090887;28;20225;-46
2023/06/21 00:27:49;;;;;;;11.87;8.00;;;;;;;18.18;91.34;94877.19;5089328;28;20200;-44
2023/06/21 00:30:16;;;;;;;11.83;7.47;;;;;;;18.11;91.67;94871.13;5089431;28;20194;-45
2023/06/21 00:32:44;;;;;;;10.03;8.20;;;;;;;18.15;92.09;94878.34;5089509;28;20193;-45
2023/06/21 00:35:11;;;;;;;10.77;7.80;;;;;;;18.04;92.48;94865.84;5089265;28;20621;-45
2023/06/21 00:37:38;;;;;;;10.73;8.40;;;;;;;18.10;92.59;94882.47;5089105;28;20288;-45
2023/06/21 00:40:11;;;;;;;10.70;8.03;;;;;;;18.05;93.00;94872.66;5089468;28;20239;-45
2023/06/21 00:42:39;;;;;;;8.40;7.60;;;;;;;18.05;93.01;94876.03;5089236;28;20263;-45
2023/06/21 00:45:09;;;;;;;12.60;8.57;;;;;;;18.04;93.21;94882.16;5089492;28;20249;-44
2023/06/21 00:47:36;;;;;;;10.27;8.47;;;;;;;18.04;93.19;94881.38;5089158;28;20267;-44
2023/06/21 00:50:06;;;;;;;9.33;8.43;;;;;;;18.03;93.66;94883.16;5089862;28;20227;-45
2023/06/21 00:52:33;;;;;;;9.73;8.63;;;;;;;18.02;93.72;94888.53;5089435;28;20193;-44
2023/06/21 00:55:00;;;;;;;13.90;8.63;;;;;;;17.99;93.49;94879.31;5089427;28;20258;-45
2023/06/21 00:57:27;;;;;;;9.80;8.00;;;;;;;17.99;93.63;94881.09;5089498;28;20186;-44
2023/06/21 00:59:54;;;;;;;10.30;8.73;;;;;;;17.98;93.92;94895.03;5089180;28;20565;-45
2023/06/21 01:02:21;;;;;;;11.90;8.90;;;;;;;17.97;93.92;94885.69;5091205;28;20276;-46
2023/06/21 01:04:49;;;;;;;10.77;8.67;;;;;;;17.94;94.33;94886.81;5092564;28;20208;-43
2023/06/21 01:07:28;;;;;;;11.70;8.23;;;;;;;17.86;94.76;94870.56;5093069;28;20296;-45
2023/06/21 01:10:09;;;;;;;8.87;8.00;;;;;;;17.89;94.94;94883.97;5094522;28;20667;-45
2023/06/21 01:12:46;;;;;;;10.73;8.73;;;;;;;17.88;95.16;94878.97;5095957;28;20193;-46
2023/06/21 01:15:18;;;;;;;9.83;8.83;;;;;;;17.84;95.36;94886.28;5093382;28;20576;-47
2023/06/21 01:17:51;;;;;;;9.57;8.57;;;;;;;17.84;95.36;94883.72;5092756;28;20189;-44
2023/06/21 01:20:24;;;;;;;11.30;8.30;;;;;;;17.78;95.54;94877.44;5093210;28;20197;-45
2023/06/21 01:23:15;;;;;;;11.23;7.93;;;;;;;17.74;95.93;94878.75;5091910;28;20202;-45
2023/06/21 01:26:06;;;;;;;9.37;8.37;;;;;;;17.71;96.20;94878.31;5092555;28;20626;-45
2023/06/21 01:28:42;;;;;;;10.00;8.77;;;;;;;17.69;96.25;94883.63;5092849;28;20189;-46
2023/06/21 01:31:15;;;;;;;10.33;8.13;;;;;;;17.60;96.06;94869.19;5092220;28;20232;-45
2023/06/21 01:33:42;;;;;;;10.93;9.67;;;;;;;17.41;96.23;94843.84;5092868;28;20182;-43
2023/06/21 01:36:10;;;;;;;9.90;8.77;;;;;;;17.61;96.68;94877.75;5092342;28;20189;-45
2023/06/21 01:38:37;;;;;;;8.50;7.40;;;;;;;17.59;96.72;94877.13;5092740;28;20660;-45
2023/06/21 01:41:06;;;;;;;9.03;8.23;;;;;;;17.63;97.01;94889.53;5092459;28;20277;-43
2023/06/21 01:43:33;;;;;;;9.40;8.40;;;;;;;17.63;96.77;94889.53;5092287;28;20210;-45
2023/06/21 01:46:03;;;;;;;10.33;9.33;;;;;;;17.64;96.83;94887.75;5092979;28;20185;-45
2023/06/21 01:48:34;;;;;;;17.33;8.53;;;;;;;17.64;97.11;94893.72;5092232;28;20277;-43
2023/06/21 01:51:03;;;;;;;12.00;8.30;;;;;;;17.66;97.00;94893.53;5092340;28;20184;-44
2023/06/21 01:53:32;;;;;;;14.27;9.37;;;;;;;17.68;96.97;94896.75;5092441;28;20189;-46
2023/06/21 01:56:01;;;;;;;10.47;9.33;;;;;;;17.55;96.85;94879.25;5092315;28;20284;-45
2023/06/21 01:58:29;;;;;;;10.47;9.07;;;;;;;17.66;96.91;94896.94;5092076;28;20572;-44
2023/06/21 02:00:57;;;;;;;9.67;8.40;;;;;;;17.64;97.11;94887.75;5091966;28;20288;-45
2023/06/21 02:03:27;;;;;;;10.70;8.80;;;;;;;17.63;96.94;94891.31;5091568;28;20201;-44
2023/06/21 02:05:58;;;;;;;9.43;8.53;;;;;;;17.63;97.08;94891.31;5091975;28;20186;-45
2023/06/21 02:08:26;;;;;;;10.53;8.40;;;;;;;17.60;97.44;94887.28;5091895;28;20182;-45
2023/06/21 02:10:53;;;;;;;10.30;8.97;;;;;;;17.56;97.63;94879.06;5091795;28;20284;-45
2023/06/21 02:13:20;;;;;;;10.60;9.47;;;;;;;17.51;97.97;94878.00;5091782;28;20660;-44
2023/06/21 02:15:47;;;;;;;11.73;9.20;;;;;;;17.47;98.01;94874.16;5091957;28;20247;-47
2023/06/21 02:18:14;;;;;;;10.37;8.77;;;;;;;17.45;98.12;94887.28;5090818;28;20198;-45
2023/06/21 02:20:41;;;;;;;9.97;8.97;;;;;;;17.29;98.11;94866.72;5091338;28;20221;-45
2023/06/21 02:23:09;;;;;;;10.77;8.77;;;;;;;17.42;98.39;94889.41;5092474;28;20193;-45
2023/06/21 02:25:37;;;;;;;12.07;9.13;;;;;;;17.40;98.08;94894.75;5094110;28;20328;-45
2023/06/21 02:28:05;;;;;;;12.47;9.43;;;;;;;17.39;98.44;94900.88;5091823;28;20198;-45
2023/06/21 02:30:32;;;;;;;9.73;8.73;;;;;;;17.32;98.75;94883.69;5091383;28;20224;-45
2023/06/21 02:32:58;;;;;;;11.33;9.10;;;;;;;17.38;98.69;94903.66;5091367;28;20186;-46
2023/06/21 02:35:25;;;;;;;10.00;9.00;;;;;;;17.32;98.71;94896.59;5091476;28;20205;-45
2023/06/21 02:37:52;;;;;;;13.40;10.07;;;;;;;17.20;98.74;94878.91;5091349;28;20194;-46
2023/06/21 02:40:20;;;;;;;10.00;8.63;;;;;;;17.35;98.85;94907.38;5091524;28;20197;-44
2023/06/21 02:42:47;;;;;;;10.03;9.03;;;;;;;17.32;99.38;94912.13;5091176;28;20250;-44
2023/06/21 02:45:14;;;;;;;10.97;9.70;;;;;;;17.30;99.42;94917.44;5090769;28;20344;-46
2023/06/21 02:47:41;;;;;;;10.50;9.40;;;;;;;17.28;99.59;94924.56;5091017;28;20200;-46
2023/06/21 02:50:08;;;;;;;11.10;9.73;;;;;;;17.26;99.48;94924.72;5090858;28;20704;-45
2023/06/21 02:52:35;;;;;;;11.00;9.27;;;;;;;17.22;99.50;94925.25;5091162;28;20229;-45
2023/06/21 02:55:02;;;;;;;14.90;9.40;;;;;;;17.10;99.71;94909.38;5090717;28;20197;-46
2023/06/21 02:57:30;;;;;;;10.57;9.47;;;;;;;17.26;99.80;94931.69;5091553;28;20197;-45
2023/06/21 02:59:59;;;;;;;10.53;9.23;;;;;;;17.26;99.96;94931.69;5090997;28;20178;-44
2023/06/21 03:02:32;;;;;;;10.40;9.40;;;;;;;17.29;99.94;94931.34;5090977;28;20209;-45
2023/06/21 03:04:59;;;;;;;10.87;9.77;;;;;;;17.29;99.89;94931.34;5090896;28;20217;-44
2023/06/21 03:07:26;;;;;;;14.87;9.47;;;;;;;17.29;99.90;94931.34;5091415;28;20186;-46
2023/06/21 03:09:53;;;;;;;10.53;9.03;;;;;;;17.34;99.81;94936.00;5091109;28;20189;-52
2023/06/21 03:12:20;;;;;;;14.97;9.67;;;;;;;17.36;99.77;94940.03;5091124;28;20185;-44
2023/06/21 03:14:48;;;;;;;11.23;9.80;;;;;;;17.37;99.84;94939.03;5090691;28;20246;-44
2023/06/21 03:17:15;;;;;;;12.33;9.90;;;;;;;17.40;99.83;94930.94;5091017;28;20198;-45
2023/06/21 03:19:42;;;;;;;10.90;9.67;;;;;;;17.42;99.68;94938.53;5090516;28;20595;-46
2023/06/21 03:22:08;;;;;;;11.80;9.17;;;;;;;17.47;99.47;94936.22;5091369;28;20193;-46
2023/06/21 03:24:35;;;;;;;10.87;9.50;;;;;;;17.50;99.81;94941.03;5090779;28;20684;-47
2023/06/21 03:27:03;;;;;;;10.40;9.37;;;;;;;17.40;100.00;94930.13;5090275;28;20228;-46
2023/06/21 03:29:30;;;;;;;13.03;10.23;;;;;;;17.48;100.00;94937.81;5090142;28;20680;-44
2023/06/21 03:31:58;;;;;;;12.70;9.80;;;;;;;17.54;100.00;94940.53;5090367;28;20193;-45
2023/06/21 03:34:24;;;;;;;13.20;9.80;;;;;;;17.39;99.87;94911.22;5090570;28;20196;-44
2023/06/21 03:36:54;;;;;;;11.43;9.67;;;;;;;17.63;99.69;94945.63;5090047;28;20201;-44
2023/06/21 03:39:21;;;;;;;10.90;9.80;;;;;;;17.67;99.58;94939.94;5090194;28;20268;-44
2023/06/21 03:41:48;;;;;;;14.60;9.67;;;;;;;17.71;99.12;94940.41;5090005;28;20189;-44
2023/06/21 03:44:15;;;;;;;12.63;10.87;;;;;;;17.80;98.78;94945.34;5090010;28;20206;-43
2023/06/21 03:46:42;;;;;;;15.63;10.07;;;;;;;17.90;98.51;94952.03;5089975;28;20189;-43
2023/06/21 03:49:10;;;;;;;14.20;10.47;;;;;;;18.01;98.09;94946.44;5089831;28;20661;-42
2023/06/21 03:51:37;;;;;;;14.57;10.67;;;;;;;18.09;98.07;94943.78;5089606;28;20625;-44
2023/06/21 03:54:04;;;;;;;16.30;10.10;;;;;;;18.20;97.54;94948.50;5089800;28;20664;-47
2023/06/21 03:56:32;;;;;;;11.23;9.90;;;;;;;18.29;97.36;94939.66;5090039;28;20193;-44
2023/06/21 03:58:59;;;;;;;13.27;10.57;;;;;;;18.43;97.09;94953.56;5089010;28;20193;-42
2023/06/21 04:01:26;;;;;;;15.40;10.10;;;;;;;18.53;96.54;94948.94;5090224;28;20345;-45
2023/06/21 04:03:52;;;;;;;13.67;9.93;;;;;;;18.64;96.11;94955.44;5089560;28;20197;-44
2023/06/21 04:06:21;;;;;;;11.70;10.50;;;;;;;18.72;95.43;94959.75;5090187;28;20219;-46
2023/06/21 04:08:48;;;;;;;13.07;9.73;;;;;;;18.67;94.87;94936.94;5089543;28;20186;-45
2023/06/21 04:11:15;;;;;;;12.20;10.47;;;;;;;18.79;94.27;94951.09;5089990;28;20296;-44
2023/06/21 04:13:42;;;;;;;15.93;10.73;;;;;;;18.98;94.03;94960.06;5089585;28;20231;-44
2023/06/21 04:16:10;;;;;;;12.37;10.77;;;;;;;19.08;92.62;94962.34;5089128;28;20190;-43
2023/06/21 04:18:37;;;;;;;18.80;11.27;;;;;;;19.08;91.90;94953.78;5089563;28;20280;-44
2023/06/21 04:21:07;;;;;;;14.67;11.63;;;;;;;19.14;91.55;94974.59;5089489;28;20193;-44
2023/06/21 04:23:36;;;;;;;20.50;12.13;;;;;;;19.11;91.50;94971.56;5089102;28;20222;-46
2023/06/21 04:26:06;;;;;;;14.33;11.97;;;;;;;19.15;91.50;94970.19;5089326;28;20229;-45
2023/06/21 04:28:33;;;;;;;18.07;12.13;;;;;;;19.19;90.96;94972.25;5089797;28;20186;-45
2023/06/21 04:31:00;;;;;;;15.63;12.13;;;;;;;19.22;90.88;94966.69;5088879;28;20571;-46
2023/06/21 04:33:29;;;;;;;17.23;12.57;;;;;;;19.18;89.73;94951.69;5088624;28;20182;-46
2023/06/21 04:35:59;;;;;;;19.27;11.97;;;;;;;19.34;89.71;94972.19;5089583;28;20190;-47
2023/06/21 04:38:26;;;;;;;15.63;12.30;;;;;;;19.44;90.20;94972.69;5089141;28;20762;-44
2023/06/21 04:40:54;;;;;;;13.20;11.53;;;;;;;19.52;89.48;94971.78;5089822;28;20193;-45
2023/06/21 04:43:24;;;;;;;17.13;12.97;;;;;;;19.64;88.89;94978.06;5092243;28;20190;-44
2023/06/21 04:45:51;;;;;;;14.13;12.10;;;;;;;19.75;88.11;94972.41;5093182;28;20213;-46
2023/06/21 04:48:18;;;;;;;14.67;13.07;;;;;;;19.85;87.67;94977.25;5093471;28;20620;-47
2023/06/21 04:50:45;;;;;;;14.73;12.60;;;;;;;19.94;87.19;94983.13;5093382;28;20189;-45
2023/06/21 04:53:12;;;;;;;14.03;12.47;;;;;;;19.98;86.62;94977.34;5093507;28;20198;-46
2023/06/21 04:55:43;;;;;;;14.57;12.33;;;;;;;20.08;86.12;94969.25;5093301;28;20652;-46
2023/06/21 04:58:12;;;;;;;16.47;13.40;;;;;;;20.16;85.90;94976.06;5093856;28;20271;-47
2023/06/21 05:00:39;;;;;;;16.40;12.90;;;;;;;20.21;85.54;94976.34;5092798;28;20197;-47
2023/06/21 05:03:06;;;;;;;22.90;13.10;;;;;;;20.30;85.48;94978.59;5093176;28;20194;-46
2023/06/21 05:05:33;;;;;;;17.77;12.95;;;;;;;20.43;84.88;94974.47;5093134;28;20229;-45
2023/06/21 05:08:00;;;;;;;15.93;11.57;;;;;;;20.53;83.57;94983.53;5093078;28;20713;-46
2023/06/21 05:10:27;;;;;;;15.40;11.95;;;;;;;20.63;83.16;94977.19;5092707;28;20706;-47
2023/06/21 05:12:54;;;;;;;16.77;12.38;;;;;;;20.78;82.63;94973.47;5093370;28;20200;-45
2023/06/21 05:15:22;;;;;;;15.57;13.10;;;;;;;21.08;81.63;94974.97;5092526;28;20186;-45
2023/06/21 05:17:49;;;;;;;21.00;12.50;;;;;;;21.40;79.73;94974.28;5092377;28;20619;-47
2023/06/21 05:20:16;;;;;;;18.35;12.88;;;;;;;21.67;78.58;94974.28;5092849;28;20654;-45
2023/06/21 05:22:43;;;;;;;16.95;12.25;;;;;;;21.96;77.35;94973.09;5085742;28;20202;-46
2023/06/21 05:25:10;;;;;;;16.30;12.45;;;;;;;22.09;76.07;94960.06;5073881;28;20253;-43
2023/06/21 05:27:37;;;;;;;16.60;12.68;;;;;;;22.36;75.96;94971.28;5072234;28;20658;-45
2023/06/21 05:30:05;;;;;;;14.65;11.77;;;;;;;22.61;74.21;94971.41;5072592;28;20555;-46
2023/06/21 05:32:33;;;;;;;14.30;11.50;;;;;;;22.94;73.61;94975.75;5082116;28;20194;-46
2023/06/21 05:35:00;;;;;;;14.50;12.05;;;;;;;23.29;72.30;94976.19;5092294;28;20204;-45
2023/06/21 05:37:26;;;;;;;15.70;11.73;;;;;;;23.62;70.76;94976.00;5092411;28;20185;-45
2023/06/21 05:39:53;;;;;;;14.88;12.20;;;;;;;23.86;69.90;94976.22;5092009;28;20193;-44
2023/06/21 05:42:20;;;;;;;16.63;11.98;;;;;;;23.88;69.65;94956.72;5092002;28;20186;-44
2023/06/21 05:44:47;;;;;;;14.77;12.10;;;;;;;24.37;67.87;94972.56;5091843;28;20182;-46
2023/06/21 05:47:14;;;;;;;18.20;11.85;;;;;;;24.56;67.06;94981.25;5091593;28;20266;-44
2023/06/21 05:49:42;;;;;;;17.92;11.77;;;;;;;24.70;66.23;94977.50;5092462;28;20186;-44
2023/06/21 05:52:09;;;;;;;16.50;12.50;;;;;;;24.92;64.95;94973.41;5089619;28;20206;-46
2023/06/21 05:54:37;;;;;;;14.10;10.75;;;;;;;25.01;65.06;94977.31;5091863;28;20251;-46
2023/06/21 05:57:05;;;;;;;13.10;11.52;;;;;;;25.10;63.74;94972.59;5092435;28;20182;-46
2023/06/21 05:59:32;;;;;;;14.30;11.85;;;;;;;25.24;63.50;94968.00;5092594;28;20216;-46
2023/06/21 06:01:58;;;;;;;15.23;12.00;;;;;;;25.25;62.77;94973.00;5091907;28;20730;-46
2023/06/21 06:04:25;;;;;;;17.13;11.20;;;;;;;25.18;63.29;94971.50;5091999;28;20182;-46
2023/06/21 06:06:53;;;;;;;17.73;10.93;;;;;;;25.43;63.93;94974.78;5090795;28;20635;-47
2023/06/21 06:09:20;;;;;;;15.25;11.88;;;;;;;25.85;62.43;94971.38;5090771;28;20209;-47
2023/06/21 06:11:47;;;;;;;11.45;10.15;;;;;;;26.28;61.41;94965.81;5090855;28;20184;-46
2023/06/21 06:14:14;;;;;;;15.98;11.80;;;;;;;26.61;59.27;94962.63;5090626;28;20258;-45
2023/06/21 06:16:40;;;;;;;12.60;10.65;;;;;;;26.77;58.86;94964.53;5090778;28;20201;-46
2023/06/21 06:19:07;;;;;;;15.23;12.23;;;;;;;26.74;58.08;94958.94;5090835;28;20250;-45
2023/06/21 06:21:34;;;;;;;14.50;10.80;;;;;;;26.83;58.77;94960.19;5091394;28;20194;-44
2023/06/21 06:24:02;;;;;;;14.65;10.70;;;;;;;27.10;57.60;94963.09;5092135;28;20198;-47
2023/06/21 06:26:29;;;;;;;13.13;11.57;;;;;;;27.26;56.30;94964.16;5094200;28;20282;-44
2023/06/21 06:28:56;;;;;;;12.30;9.57;;;;;;;27.31;56.97;94959.00;5093918;28;20239;-48
2023/06/21 06:31:24;;;;;;;16.02;12.48;;;;;;;27.51;56.08;94963.84;5094832;28;20193;-47
2023/06/21 06:33:51;;;;;;;15.95;11.02;;;;;;;27.50;56.18;94957.78;5094129;28;20190;-46
2023/06/21 06:36:19;;;;;;;15.30;9.60;;;;;;;27.68;56.79;94963.84;5089549;28;20202;-45
2023/06/21 06:38:46;;;;;;;11.40;10.27;;;;;;;27.95;56.20;94954.31;5092604;28;20190;-46
2023/06/21 06:41:15;;;;;;;20.73;10.75;;;;;;;28.26;55.00;94963.47;5090448;28;20188;-46
2023/06/21 06:43:42;;;;;;;13.43;9.60;;;;;;;28.40;54.70;94966.56;5090561;28;20186;-46
2023/06/21 06:46:08;;;;;;;15.27;10.57;;;;;;;28.43;54.09;94958.19;5090078;28;20651;-46
2023/06/21 06:48:35;;;;;;;11.30;9.45;;;;;;;28.49;54.28;94964.31;5089962;28;20683;-44
2023/06/21 06:51:02;;;;;;;13.07;9.60;;;;;;;28.73;53.82;94952.53;5090376;28;20246;-46
2023/06/21 06:53:29;;;;;;;14.43;10.02;;;;;;;29.02;53.59;94959.47;5090122;28;20208;-45
2023/06/21 06:55:58;;;;;;;16.92;11.18;;;;;;;29.20;51.59;94953.88;5090167;28;20202;-45
2023/06/21 06:58:27;;;;;;;14.15;10.15;;;;;;;29.15;52.30;94952.00;5090147;28;20220;-46
2023/06/21 07:00:54;;;;;;;16.75;9.35;;;;;;;29.34;52.03;94964.81;5087618;28;20190;-44
2023/06/21 07:03:21;;;;;;;11.32;10.07;;;;;;;29.51;51.68;94962.88;5090062;28;20186;-46
2023/06/21 07:05:49;;;;;;;14.60;9.80;;;;;;;29.73;50.66;94958.34;5089184;28;20222;-45
2023/06/21 07:08:16;;;;;;;16.00;10.73;;;;;;;29.85;49.27;94960.03;5089368;28;20193;-46
2023/06/21 07:10:42;;;;;;;16.88;10.35;;;;;;;29.64;50.21;94956.44;5090020;28;20186;-45
2023/06/21 07:13:09;;;;;;;10.52;9.20;;;;;;;29.74;50.83;94949.41;5089714;28;20660;-46
2023/06/21 07:15:37;;;;;;;13.05;10.25;;;;;;;29.90;50.22;94957.44;5089361;28;20201;-46
2023/06/21 07:18:04;;;;;;;13.52;10.07;;;;;;;30.10;49.55;94954.97;5089917;28;20204;-46
2023/06/21 07:20:32;;;;;;;10.52;9.43;;;;;;;30.19;49.38;94952.66;5090039;28;20194;-45
2023/06/21 07:22:58;;;;;;;11.57;8.75;;;;;;;30.35;48.96;94940.34;5089932;28;20300;-45
2023/06/21 07:25:25;;;;;;;13.80;10.82;;;;;;;30.54;48.23;94944.16;5089630;28;20225;-46
2023/06/21 07:27:52;;;;;;;12.60;9.13;;;;;;;30.60;47.72;94944.97;5089740;28;20197;-44
2023/06/21 07:30:20;;;;;;;14.50;10.25;;;;;;;30.37;48.13;94936.41;5089228;28;20186;-46
2023/06/21 07:32:48;;;;;;;12.27;8.80;;;;;;;30.34;48.62;94930.84;5089803;28;20193;-46
2023/06/21 07:35:15;;;;;;;14.63;10.35;;;;;;;30.35;48.86;94940.34;5089627;28;20673;-46
2023/06/21 07:37:42;;;;;;;11.63;9.80;;;;;;;30.41;48.61;94941.97;5089399;28;20406;-44
2023/06/21 07:40:10;;;;;;;16.15;10.55;;;;;;;30.59;48.02;94938.09;5089019;28;20384;-46
2023/06/21 07:42:37;;;;;;;15.13;9.85;;;;;;;30.54;48.74;94936.25;5087531;28;20285;-47
2023/06/21 07:45:05;;;;;;;17.95;9.82;;;;;;;30.73;47.49;94931.31;5088618;28;20189;-46
2023/06/21 07:47:32;;;;;;;14.73;9.27;;;;;;;30.92;47.58;94935.09;5089537;28;20271;-45
2023/06/21 07:50:01;;;;;;;18.40;10.48;;;;;;;31.01;46.81;94929.31;5088990;28;20204;-45
2023/06/21 07:52:27;;;;;;;14.73;11.20;;;;;;;30.81;47.12;94935.31;5089602;28;20185;-48
2023/06/21 07:54:54;;;;;;;11.43;9.48;;;;;;;30.52;48.32;94937.53;5089325;28;20235;-46
2023/06/21 07:57:21;;;;;;;10.98;9.40;;;;;;;30.49;48.01;94915.09;5086698;28;20610;-45
2023/06/21 07:59:48;;;;;;;16.08;10.77;;;;;;;30.76;48.44;94930.81;5088395;28;20664;-45
2023/06/21 08:02:18;;;;;;;10.35;9.18;;;;;;;31.08;47.18;94938.56;5088866;28;20647;-45
2023/06/21 08:04:45;;;;;;;14.02;9.60;;;;;;;31.20;47.01;94933.06;5088570;28;20174;-46
2023/06/21 08:07:13;;;;;;;12.40;9.50;;;;;;;30.99;46.64;94879.38;5088994;28;20202;-46
2023/06/21 08:09:40;;;;;;;11.32;9.10;;;;;;;31.35;47.37;94929.69;5089407;28;20185;-45
2023/06/21 08:12:08;;;;;;;10.93;8.70;;;;;;;31.27;46.97;94930.97;5088474;28;20190;-45
2023/06/21 08:14:35;;;;;;;13.30;9.73;;;;;;;31.05;47.61;94902.13;5089081;28;20186;-46
2023/06/21 08:17:02;;;;;;;16.95;10.25;;;;;;;31.09;47.30;94931.44;5089217;28;20282;-47
2023/06/21 08:19:28;;;;;;;16.23;9.77;;;;;;;30.97;47.37;94923.75;5088843;28;20260;-46
2023/06/21 08:21:55;;;;;;;12.00;10.15;;;;;;;30.93;47.69;94922.69;5088951;28;20190;-46
2023/06/21 08:24:26;;;;;;;12.50;9.43;;;;;;;30.90;47.36;94923.19;5088740;28;20280;-44
2023/06/21 08:26:52;;;;;;;11.30;10.18;;;;;;;30.72;47.50;94927.91;5088886;28;20244;-44
2023/06/21 08:29:19;;;;;;;10.30;8.40;;;;;;;30.48;48.30;94929.31;5089727;28;20181;-45
2023/06/21 08:31:46;;;;;;;14.00;9.57;;;;;;;30.35;48.61;94930.59;5088821;28;20186;-46
2023/06/21 08:34:13;;;;;;;13.27;9.77;;;;;;;30.38;49.17;94927.44;5088627;28;20197;-46
2023/06/21 08:36:40;;;;;;;13.15;8.18;;;;;;;30.51;48.92;94930.69;5088572;28;20185;-45
2023/06/21 08:39:06;;;;;;;10.55;8.48;;;;;;;30.73;49.01;94926.84;5087914;28;20270;-46
2023/06/21 08:41:36;;;;;;;9.32;8.32;;;;;;;30.88;48.20;94920.03;5088678;28;20181;-45
2023/06/21 08:44:04;;;;;;;11.10;9.07;;;;;;;30.95;47.66;94925.84;5089089;28;20232;-44
2023/06/21 08:46:35;;;;;;;11.18;8.30;;;;;;;30.73;47.28;94920.75;5087878;28;20312;-47
2023/06/21 08:49:05;;;;;;;10.52;8.45;;;;;;;30.78;47.97;94920.78;5088641;28;20178;-46
2023/06/21 08:51:35;;;;;;;12.15;8.82;;;;;;;30.69;48.67;94915.16;5089532;28;20209;-47
2023/06/21 08:54:04;;;;;;;9.10;8.18;;;;;;;30.48;48.52;94916.94;5089742;28;20272;-44
2023/06/21 08:56:38;;;;;;;11.18;8.20;;;;;;;30.46;48.06;94920.88;5086372;28;20207;-45
2023/06/21 08:59:09;;;;;;;11.00;9.20;;;;;;;30.30;48.36;94920.00;5086065;28;20656;-46
2023/06/21 09:01:46;;;;;;;9.43;8.27;;;;;;;30.04;48.92;94853.06;5084571;28;20182;-46
2023/06/21 09:04:17;;;;;;;8.75;7.30;;;;;;;30.63;48.00;94910.94;5083730;28;20204;-45
2023/06/21 09:06:44;;;;;;;8.85;8.00;;;;;;;30.79;48.02;94913.66;5085443;28;20229;-46
2023/06/21 09:09:13;;;;;;;10.30;7.72;;;;;;;31.03;47.06;94911.34;5086368;28;20190;-44
2023/06/21 09:11:43;;;;;;;10.40;7.60;;;;;;;31.12;46.43;94907.13;5086363;28;20675;-46
2023/06/21 09:14:11;;;;;;;9.75;7.38;;;;;;;31.19;46.82;94913.78;5086032;28;20288;-45
2023/06/21 09:16:39;;;;;;;10.38;8.13;;;;;;;31.30;46.14;94903.22;5084869;28;20643;-48
2023/06/21 09:19:06;;;;;;;9.63;7.53;;;;;;;31.29;45.23;94902.44;5085459;28;20218;-46
2023/06/21 09:21:35;;;;;;;10.32;7.63;;;;;;;31.12;45.51;94892.06;5085932;28;20182;-45
2023/06/21 09:24:02;;;;;;;10.43;7.63;;;;;;;31.07;46.42;94913.22;5085800;28;20194;-46
2023/06/21 09:26:29;;;;;;;9.63;7.38;;;;;;;31.02;44.32;94901.84;5085263;28;20237;-47
2023/06/21 09:28:58;;;;;;;10.05;6.78;;;;;;;30.89;45.07;94911.84;5088316;28;20200;-46
2023/06/21 09:31:28;;;;;;;7.93;7.07;;;;;;;30.86;44.15;94912.34;5089588;28;20668;-46
2023/06/21 09:33:56;;;;;;;6.72;6.13;;;;;;;30.96;43.88;94916.91;5088099;28;20190;-46
2023/06/21 09:36:23;;;;;;;6.95;6.32;;;;;;;30.89;42.55;94909.22;5088726;28;20200;-46
2023/06/21 09:38:50;;;;;;;9.98;7.07;;;;;;;30.83;42.81;94906.78;5088867;28;20616;-47
2023/06/21 09:41:19;;;;;;;7.75;6.20;;;;;;;30.87;42.50;94906.03;5089314;28;20197;-47
2023/06/21 09:43:46;;;;;;;9.13;6.72;;;;;;;30.96;43.12;94914.25;5089059;28;20615;-48
2023/06/21 09:46:15;;;;;;;9.40;6.22;;;;;;;31.06;43.05;94909.00;5089316;28;20210;-47
2023/06/21 09:48:42;;;;;;;8.40;6.80;;;;;;;31.02;42.63;94891.28;5088995;28;20213;-46
2023/06/21 09:51:11;;;;;;;6.45;5.95;;;;;;;31.21;42.13;94902.94;5089398;28;20198;-44
2023/06/21 09:53:42;;;;;;;7.53;6.82;;;;;;;31.18;42.34;94900.84;5088932;28;20198;-45
2023/06/21 09:56:17;;;;;;;10.10;6.90;;;;;;;31.14;40.85;94910.34;5087547;28;20296;-45
2023/06/21 09:58:47;;;;;;;7.53;6.70;;;;;;;31.02;40.92;94912.41;5090988;28;20631;-44
2023/06/21 10:01:17;;;;;;;6.30;5.70;;;;;;;30.85;41.31;94889.66;5091715;28;20193;-46
2023/06/21 10:03:46;;;;;;;6.80;6.18;;;;;;;31.05;40.91;94906.63;5091288;27;20284;-47
2023/06/21 10:06:16;;;;;;;6.53;5.93;;;;;;;30.83;41.03;94894.41;5090147;28;20224;-47
2023/06/21 10:08:45;;;;;;;6.90;5.95;;;;;;;30.88;40.86;94902.34;5091329;28;20654;-48
2023/06/21 10:11:16;;;;;;;10.48;5.85;;;;;;;30.84;40.96;94900.47;5091492;28;20189;-47
2023/06/21 10:13:43;;;;;;;6.90;6.20;;;;;;;30.86;40.49;94893.06;5090602;28;20189;-46
2023/06/21 10:16:12;;;;;;;6.40;5.72;;;;;;;30.76;40.23;94906.25;5091036;28;20675;-44
2023/06/21 10:18:41;;;;;;;7.45;6.00;;;;;;;30.51;39.68;94906.91;5090559;28;20209;-44
2023/06/21 10:21:08;;;;;;;8.07;6.30;;;;;;;30.41;39.84;94899.75;5090345;28;20190;-45
2023/06/21 10:23:38;;;;;;;6.65;6.05;;;;;;;30.35;40.60;94892.84;5090398;28;20547;-44
2023/06/21 10:26:07;;;;;;;7.88;6.75;;;;;;;30.34;41.42;94897.31;5090276;28;20225;-45
2023/06/21 10:28:37;;;;;;;6.80;6.10;;;;;;;30.41;41.26;94905.03;5090720;28;20205;-47
2023/06/21 10:31:05;;;;;;;6.35;5.85;;;;;;;30.49;40.90;94894.78;5090765;28;20186;-47
2023/06/21 10:33:35;;;;;;;6.32;5.82;;;;;;;30.57;40.74;94896.13;5090479;28;20185;-48
2023/06/21 10:36:04;;;;;;;6.55;5.85;;;;;;;30.49;41.46;94886.06;5089094;28;20805;-45
2023/06/21 10:38:38;;;;;;;8.18;6.47;;;;;;;30.44;41.94;94878.09;5089821;28;20295;-47
2023/06/21 10:41:06;;;;;;;8.43;6.50;;;;;;;30.69;42.18;94898.53;5087094;28;20315;-44
2023/06/21 10:43:35;;;;;;;6.43;5.75;;;;;;;30.72;41.60;94904.13;5090523;28;20255;-45
2023/06/21 10:46:05;;;;;;;6.63;6.03;;;;;;;30.77;41.88;94905.19;5087820;28;20197;-46
2023/06/21 10:48:34;;;;;;;7.30;6.40;;;;;;;30.86;41.62;94904.44;5089868;28;20272;-46
2023/06/21 10:51:04;;;;;;;8.65;6.18;;;;;;;30.84;41.45;94903.91;5090189;28;20185;-45
2023/06/21 10:53:33;;;;;;;8.30;6.60;;;;;;;30.76;41.29;94907.06;5089745;28;20714;-44
2023/06/21 10:56:01;;;;;;;6.85;5.95;;;;;;;30.72;42.12;94908.63;5090176;28;20186;-44
2023/06/21 10:58:29;;;;;;;7.15;6.45;;;;;;;30.73;42.03;94907.56;5089699;28;20262;-45
2023/06/21 11:00:57;;;;;;;6.85;6.25;;;;;;;30.71;42.07;94901.72;5089617;28;20177;-46
2023/06/21 11:03:26;;;;;;;6.43;5.82;;;;;;;30.72;42.92;94908.63;5089526;28;20209;-45
2023/06/21 11:05:55;;;;;;;8.73;6.55;;;;;;;30.57;42.21;94882.13;5089428;28;20188;-47
2023/06/21 11:08:32;;;;;;;12.43;6.45;;;;;;;30.55;43.11;94892.94;5089192;28;20259;-45
2023/06/21 11:10:59;;;;;;;6.88;6.38;;;;;;;30.58;43.00;94897.72;5090483;28;20194;-44
2023/06/21 11:13:36;;;;;;;10.02;6.43;;;;;;;30.50;42.35;94903.47;5089826;28;20201;-46
2023/06/21 11:16:11;;;;;;;9.10;8.23;;;;;;;30.27;42.78;94899.44;5089902;28;20280;-46
2023/06/21 11:18:40;;;;;;;8.00;7.30;;;;;;;30.23;43.11;94882.50;5086924;28;20192;-44
2023/06/21 11:21:08;;;;;;;7.05;6.35;;;;;;;30.36;43.47;94895.25;5089361;28;20186;-47
2023/06/21 11:23:51;;;;;;;8.43;6.47;;;;;;;30.38;43.08;94893.13;5089263;28;20186;-46
2023/06/21 11:26:19;;;;;;;7.50;6.70;;;;;;;30.37;42.92;94891.53;5084936;28;20221;-45
2023/06/21 11:28:47;;;;;;;6.75;6.15;;;;;;;30.35;43.11;94891.00;5089779;28;20550;-45